createdAt,value
2017-10-27T00:00:20.782Z,28.40
2017-10-27T00:02:48.800Z,28.40
2017-10-27T00:05:16.811Z,28.30
2017-10-27T00:07:46.293Z,28.30
2017-10-27T00:10:14.341Z,28.20
2017-10-27T00:12:42.928Z,28.20
2017-10-27T00:15:10.940Z,28.10
2017-10-27T00:17:39.680Z,28.10
2017-10-27T00:20:07.806Z,28.10
2017-10-27T00:22:37.289Z,28.10
2017-10-27T00:25:06.042Z,28.00
2017-10-27T00:27:34.556Z,28.00
2017-10-27T00:30:02.551Z,27.80
2017-10-27T00:32:31.368Z,27.80
2017-10-27T00:34:59.391Z,27.80
2017-10-27T00:37:28.151Z,27.80
2017-10-27T00:39:56.591Z,27.80
2017-10-27T00:42:25.419Z,27.80
2017-10-27T00:44:53.467Z,27.80
2017-10-27T00:47:21.471Z,27.80
2017-10-27T00:49:49.553Z,27.80
2017-10-27T00:52:18.269Z,27.90
2017-10-27T00:54:47.058Z,27.80
2017-10-27T00:57:15.606Z,27.80
2017-10-27T00:59:43.854Z,27.80
2017-10-27T01:02:11.914Z,27.70
2017-10-27T01:04:40.667Z,27.70
2017-10-27T01:07:08.704Z,27.70
2017-10-27T01:09:36.735Z,27.70
2017-10-27T01:12:06.000Z,27.60
2017-10-27T01:14:34.665Z,27.60
2017-10-27T01:17:02.684Z,27.60
2017-10-27T01:19:31.550Z,27.50
2017-10-27T01:22:00.117Z,27.50
2017-10-27T01:24:28.966Z,27.50
2017-10-27T01:26:58.171Z,27.40
2017-10-27T01:29:27.856Z,27.40
2017-10-27T01:31:55.986Z,27.50
2017-10-27T01:34:24.240Z,27.40
2017-10-27T01:36:52.952Z,27.30
2017-10-27T01:39:21.567Z,27.30
2017-10-27T01:41:49.823Z,27.20
2017-10-27T01:44:18.698Z,27.20
2017-10-27T01:46:47.293Z,27.10
2017-10-27T01:49:16.191Z,27.20
2017-10-27T01:51:44.939Z,27.20
2017-10-27T01:54:13.862Z,27.20
2017-10-27T01:56:42.395Z,27.10
2017-10-27T01:59:11.952Z,27.20
2017-10-27T02:01:40.025Z,27.10
2017-10-27T02:04:08.238Z,27.10
2017-10-27T02:06:36.331Z,27.10
2017-10-27T02:09:05.263Z,27.00
2017-10-27T02:11:33.991Z,27.00
2017-10-27T02:14:02.599Z,27.00
2017-10-27T02:16:31.914Z,26.90
2017-10-27T02:19:00.810Z,26.90
2017-10-27T02:21:29.706Z,26.90
2017-10-27T02:23:58.400Z,26.90
2017-10-27T02:26:27.283Z,26.80
2017-10-27T02:28:56.654Z,26.80
2017-10-27T02:31:25.529Z,26.80
2017-10-27T02:33:53.691Z,26.80
2017-10-27T02:36:21.767Z,26.80
2017-10-27T02:38:50.267Z,26.80
2017-10-27T02:41:18.547Z,26.80
2017-10-27T02:43:47.031Z,26.80
2017-10-27T02:46:16.115Z,26.80
2017-10-27T02:48:44.135Z,26.90
2017-10-27T02:51:12.959Z,26.90
2017-10-27T02:53:41.580Z,26.80
2017-10-27T02:56:10.323Z,26.80
2017-10-27T02:58:39.058Z,26.90
2017-10-27T03:01:07.683Z,26.90
2017-10-27T03:03:36.155Z,27.00
2017-10-27T03:06:04.895Z,27.10
2017-10-27T03:08:32.915Z,27.10
2017-10-27T03:11:02.254Z,27.20
2017-10-27T03:13:30.741Z,27.10
2017-10-27T03:15:58.780Z,27.20
2017-10-27T03:18:26.852Z,27.30
2017-10-27T03:20:54.855Z,28.30
2017-10-27T03:23:22.880Z,29.10
2017-10-27T03:25:51.627Z,28.50
2017-10-27T03:28:20.259Z,28.50
2017-10-27T03:30:49.076Z,28.30
2017-10-27T03:33:17.096Z,28.20
2017-10-27T03:35:45.111Z,28.20
2017-10-27T03:38:13.112Z,28.30
2017-10-27T03:40:41.235Z,28.40
2017-10-27T03:43:10.718Z,28.50
2017-10-27T03:45:39.475Z,28.50
2017-10-27T03:48:07.983Z,28.70
2017-10-27T03:50:36.055Z,28.70
2017-10-27T03:53:04.080Z,28.80
2017-10-27T03:55:32.982Z,28.90
2017-10-27T03:58:01.215Z,28.80
2017-10-27T04:00:30.235Z,29.10
2017-10-27T04:02:58.804Z,29.10
2017-10-27T04:05:27.618Z,29.20
2017-10-27T04:07:55.695Z,29.20
2017-10-27T04:10:23.812Z,29.60
2017-10-27T04:12:52.330Z,30.40
2017-10-27T04:15:21.487Z,31.70
2017-10-27T04:17:50.030Z,31.60
2017-10-27T04:20:18.086Z,31.30
2017-10-27T04:22:46.839Z,30.50
2017-10-27T04:25:14.855Z,30.50
2017-10-27T04:27:42.902Z,30.30
2017-10-27T04:30:11.870Z,30.40
2017-10-27T04:32:40.533Z,30.40
2017-10-27T04:35:08.586Z,30.50
2017-10-27T04:37:36.647Z,30.60
2017-10-27T04:40:05.416Z,30.80
2017-10-27T04:42:34.756Z,30.90
2017-10-27T04:45:02.767Z,30.90
2017-10-27T04:47:31.286Z,30.90
2017-10-27T04:50:00.048Z,31.10
2017-10-27T04:52:28.091Z,31.10
2017-10-27T04:54:56.142Z,31.30
2017-10-27T04:57:24.711Z,31.40
2017-10-27T04:59:52.723Z,31.50
2017-10-27T05:02:20.782Z,31.70
2017-10-27T05:04:49.382Z,31.70
2017-10-27T05:07:17.385Z,31.90
2017-10-27T05:09:45.409Z,32.10
2017-10-27T05:12:13.423Z,32.40
2017-10-27T05:14:42.155Z,32.70
2017-10-27T05:17:15.978Z,33.60
2017-10-27T05:19:49.668Z,34.70
2017-10-27T05:22:23.551Z,35.90
2017-10-27T05:24:52.314Z,38.20
2017-10-27T05:27:21.062Z,38.10
2017-10-27T05:29:49.184Z,38.40
2017-10-27T05:32:18.019Z,38.10
2017-10-27T05:34:46.766Z,37.40
2017-10-27T05:37:14.954Z,36.90
2017-10-27T05:39:43.696Z,36.40
2017-10-27T05:42:12.359Z,36.40
2017-10-27T05:44:41.991Z,36.40
2017-10-27T05:47:10.493Z,35.90
2017-10-27T05:49:38.975Z,36.00
2017-10-27T05:52:07.211Z,36.00
2017-10-27T05:54:35.251Z,35.80
2017-10-27T05:57:03.908Z,35.90
2017-10-27T05:59:32.070Z,35.80
2017-10-27T06:02:00.130Z,35.60
2017-10-27T06:04:28.190Z,35.50
2017-10-27T06:06:56.342Z,35.40
2017-10-27T06:09:25.095Z,35.40
2017-10-27T06:11:53.147Z,35.40
2017-10-27T06:14:21.789Z,35.00
2017-10-27T06:16:51.274Z,35.30
2017-10-27T06:19:19.276Z,35.30
2017-10-27T06:21:48.322Z,35.30
2017-10-27T06:24:16.372Z,35.30
2017-10-27T06:26:45.232Z,35.70
2017-10-27T06:29:14.083Z,37.80
2017-10-27T06:31:42.111Z,37.80
2017-10-27T06:34:10.298Z,38.20
2017-10-27T06:36:38.472Z,39.20
2017-10-27T06:39:06.518Z,39.20
2017-10-27T06:41:35.272Z,38.30
2017-10-27T06:44:03.459Z,38.30
2017-10-27T06:46:31.487Z,38.20
2017-10-27T06:49:00.043Z,37.80
2017-10-27T06:51:29.664Z,37.10
2017-10-27T06:53:57.717Z,37.10
2017-10-27T06:56:26.542Z,37.00
2017-10-27T06:58:55.379Z,37.00
2017-10-27T07:01:23.842Z,36.80
2017-10-27T07:03:52.199Z,36.70
2017-10-27T07:06:21.026Z,36.70
2017-10-27T07:08:49.094Z,36.70
2017-10-27T07:11:17.154Z,36.70
2017-10-27T07:13:45.283Z,36.70
2017-10-27T07:16:13.882Z,36.70
2017-10-27T07:18:42.399Z,36.70
2017-10-27T07:21:11.103Z,36.80
2017-10-27T07:23:39.144Z,36.90
2017-10-27T07:26:07.212Z,36.60
2017-10-27T07:28:36.020Z,36.60
2017-10-27T07:31:04.313Z,36.70
2017-10-27T07:33:32.732Z,36.60
2017-10-27T07:36:01.071Z,36.60
2017-10-27T07:38:29.267Z,36.60
2017-10-27T07:40:58.141Z,36.70
2017-10-27T07:43:26.409Z,36.70
2017-10-27T07:45:54.974Z,37.10
2017-10-27T07:48:23.052Z,37.00
2017-10-27T07:50:51.836Z,37.60
2017-10-27T07:53:20.588Z,38.10
2017-10-27T07:55:49.490Z,37.50
2017-10-27T07:58:17.759Z,37.50
2017-10-27T08:00:47.451Z,36.70
2017-10-27T08:03:16.767Z,36.60
2017-10-27T08:05:46.262Z,36.60
2017-10-27T08:08:15.835Z,36.60
2017-10-27T08:10:43.986Z,36.50
2017-10-27T08:13:12.324Z,36.70
2017-10-27T08:15:41.524Z,36.60
2017-10-27T08:18:11.095Z,36.70
2017-10-27T08:20:39.974Z,36.70
2017-10-27T08:23:08.738Z,36.60
2017-10-27T08:25:36.859Z,36.70
2017-10-27T08:28:05.191Z,36.40
2017-10-27T08:30:34.224Z,36.50
2017-10-27T08:33:02.386Z,36.50
2017-10-27T08:35:31.238Z,36.50
2017-10-27T08:38:00.755Z,36.50
2017-10-27T08:40:28.954Z,36.50
2017-10-27T08:42:57.328Z,36.50
2017-10-27T08:45:25.488Z,36.40
2017-10-27T08:47:54.088Z,36.30
2017-10-27T08:50:22.768Z,36.30
2017-10-27T08:52:51.435Z,36.10
2017-10-27T08:55:20.287Z,36.20
2017-10-27T08:57:48.551Z,36.20
2017-10-27T09:00:16.823Z,36.30
2017-10-27T09:02:45.455Z,36.30
2017-10-27T09:05:15.015Z,36.30
2017-10-27T09:07:43.715Z,36.30
2017-10-27T09:10:11.866Z,36.10
2017-10-27T09:12:40.108Z,36.40
2017-10-27T09:15:09.018Z,36.40
2017-10-27T09:17:37.178Z,36.40
2017-10-27T09:20:06.195Z,36.30
2017-10-27T09:22:34.862Z,36.30
2017-10-27T09:25:03.002Z,36.30
2017-10-27T09:27:31.223Z,36.20
2017-10-27T09:29:59.431Z,36.20
2017-10-27T09:32:28.017Z,36.20
2017-10-27T09:34:56.298Z,36.20
2017-10-27T09:37:25.045Z,36.20
2017-10-27T09:39:54.722Z,36.20
2017-10-27T09:42:23.167Z,36.10
2017-10-27T09:44:51.343Z,36.10
2017-10-27T09:47:19.562Z,36.10
2017-10-27T09:49:48.375Z,36.00
2017-10-27T09:52:17.716Z,36.00
2017-10-27T09:54:46.232Z,36.00
2017-10-27T09:57:15.039Z,35.90
2017-10-27T09:59:43.928Z,36.00
2017-10-27T10:02:12.888Z,35.90
2017-10-27T10:04:41.237Z,35.90
2017-10-27T10:07:09.798Z,35.90
2017-10-27T10:09:38.998Z,35.90
2017-10-27T10:12:08.516Z,35.90
2017-10-27T10:14:36.657Z,35.90
2017-10-27T10:17:04.832Z,35.90
2017-10-27T10:19:34.523Z,35.80
2017-10-27T10:22:03.095Z,35.80
2017-10-27T10:24:31.165Z,35.80
2017-10-27T10:27:00.171Z,35.80
2017-10-27T10:29:28.322Z,35.80
2017-10-27T10:31:56.468Z,35.70
2017-10-27T10:34:26.119Z,35.50
2017-10-27T10:36:55.043Z,35.40
2017-10-27T10:39:23.730Z,35.40
2017-10-27T10:41:52.301Z,35.50
2017-10-27T10:44:20.552Z,35.60
2017-10-27T10:46:48.817Z,35.50
2017-10-27T10:49:17.706Z,35.50
2017-10-27T10:51:46.040Z,35.50
2017-10-27T10:54:14.730Z,35.50
2017-10-27T10:56:43.570Z,35.40
2017-10-27T10:59:11.642Z,35.40
2017-10-27T11:01:39.954Z,35.40
2017-10-27T11:04:08.287Z,35.40
2017-10-27T11:06:36.851Z,35.30
2017-10-27T11:09:06.151Z,35.10
2017-10-27T11:11:35.568Z,35.10
2017-10-27T11:14:04.426Z,35.10
2017-10-27T11:16:32.516Z,35.10
2017-10-27T11:19:01.517Z,35.00
2017-10-27T11:21:31.021Z,35.00
2017-10-27T11:23:59.936Z,34.90
2017-10-27T11:26:29.081Z,34.90
2017-10-27T11:28:58.177Z,34.90
2017-10-27T11:31:27.157Z,34.70
2017-10-27T11:33:55.479Z,34.70
2017-10-27T11:36:25.224Z,34.50
2017-10-27T11:38:54.155Z,34.50
2017-10-27T11:41:23.210Z,34.60
2017-10-27T11:43:52.043Z,34.60
2017-10-27T11:46:20.572Z,34.50
2017-10-27T11:48:49.486Z,34.40
2017-10-27T11:51:18.267Z,34.40
2017-10-27T11:53:47.001Z,34.40
2017-10-27T11:56:15.551Z,34.30
2017-10-27T11:58:44.123Z,34.30
2017-10-27T12:01:12.198Z,34.20
2017-10-27T12:03:40.356Z,34.20
2017-10-27T12:06:09.351Z,34.20
2017-10-27T12:08:38.719Z,34.20
2017-10-27T12:11:08.195Z,34.20
2017-10-27T12:13:36.742Z,34.20
2017-10-27T12:16:05.675Z,34.10
2017-10-27T12:18:34.058Z,34.10
2017-10-27T12:21:03.106Z,34.10
2017-10-27T12:23:31.986Z,34.00
2017-10-27T12:26:01.571Z,33.90
2017-10-27T12:28:30.313Z,33.90
2017-10-27T12:30:58.419Z,34.00
2017-10-27T12:33:26.651Z,33.80
2017-10-27T12:35:55.594Z,33.70
2017-10-27T12:38:24.239Z,33.70
2017-10-27T12:40:52.465Z,33.70
2017-10-27T12:43:20.990Z,33.60
2017-10-27T12:45:50.331Z,33.60
2017-10-27T12:48:18.558Z,33.60
2017-10-27T12:50:47.426Z,33.50
2017-10-27T12:53:15.840Z,33.40
2017-10-27T12:55:45.482Z,33.40
2017-10-27T12:58:14.174Z,33.40
2017-10-27T13:00:42.927Z,33.40
2017-10-27T13:03:11.863Z,33.40
2017-10-27T13:05:39.990Z,33.40
2017-10-27T13:08:08.728Z,33.40
2017-10-27T13:10:37.371Z,33.30
2017-10-27T13:13:06.768Z,33.30
2017-10-27T13:15:36.458Z,33.20
2017-10-27T13:18:04.726Z,33.20
2017-10-27T13:20:32.838Z,33.20
2017-10-27T13:23:01.732Z,33.10
2017-10-27T13:25:31.209Z,33.00
2017-10-27T13:28:14.912Z,33.00
2017-10-27T13:30:43.106Z,33.00
2017-10-27T13:33:11.239Z,33.00
2017-10-27T13:35:39.335Z,32.90
2017-10-27T13:38:07.998Z,32.90
2017-10-27T13:40:36.567Z,32.80
2017-10-27T13:43:05.817Z,32.80
2017-10-27T13:45:34.622Z,32.80
2017-10-27T13:48:03.299Z,32.80
2017-10-27T13:50:31.554Z,32.70
2017-10-27T13:52:59.779Z,32.70
2017-10-27T13:55:27.926Z,32.70
2017-10-27T13:57:56.015Z,32.60
2017-10-27T14:00:24.351Z,32.60
2017-10-27T14:02:52.440Z,32.50
2017-10-27T14:05:20.651Z,32.50
2017-10-27T14:07:48.934Z,32.50
2017-10-27T14:10:18.562Z,32.40
2017-10-27T14:12:47.968Z,32.30
2017-10-27T14:15:16.839Z,32.30
2017-10-27T14:17:44.942Z,32.30
2017-10-27T14:20:13.102Z,32.30
2017-10-27T14:22:41.861Z,32.30
2017-10-27T14:25:09.918Z,32.30
2017-10-27T14:27:38.088Z,32.20
2017-10-27T14:30:06.157Z,32.30
2017-10-27T14:32:34.168Z,32.20
2017-10-27T14:35:02.341Z,32.10
2017-10-27T14:37:30.402Z,32.20
2017-10-27T14:39:58.415Z,32.10
2017-10-27T14:42:26.627Z,32.10
2017-10-27T14:44:54.658Z,32.10
2017-10-27T14:47:23.440Z,32.10
2017-10-27T14:49:52.501Z,32.10
2017-10-27T14:52:20.545Z,32.10
2017-10-27T14:54:48.602Z,32.10
2017-10-27T14:57:16.751Z,32.10
2017-10-27T14:59:45.554Z,32.00
2017-10-27T15:02:14.346Z,32.00
2017-10-27T15:04:42.464Z,32.00
2017-10-27T15:07:10.530Z,32.00
2017-10-27T15:09:39.102Z,32.00
2017-10-27T15:12:07.939Z,32.00
2017-10-27T15:14:36.343Z,32.00
2017-10-27T15:17:05.214Z,31.90
2017-10-27T15:19:33.327Z,31.90
2017-10-27T15:22:01.370Z,31.90
2017-10-27T15:24:30.162Z,31.80
2017-10-27T15:26:59.038Z,31.80
2017-10-27T15:29:27.310Z,31.80
2017-10-27T15:31:55.462Z,31.80
2017-10-27T15:34:23.559Z,31.90
2017-10-27T15:36:51.599Z,31.80
2017-10-27T15:39:19.620Z,31.80
2017-10-27T15:41:48.930Z,31.80
2017-10-27T15:44:18.237Z,31.80
2017-10-27T15:46:46.822Z,31.80
2017-10-27T15:49:16.219Z,31.80
2017-10-27T15:51:45.087Z,31.80
2017-10-27T15:54:13.192Z,31.70
2017-10-27T15:56:42.810Z,31.80
2017-10-27T15:59:11.507Z,31.70
2017-10-27T16:01:40.309Z,31.80
2017-10-27T16:04:08.439Z,31.70
2017-10-27T16:06:37.647Z,31.70
2017-10-27T16:09:06.418Z,31.70
2017-10-27T16:11:34.566Z,31.60
2017-10-27T16:14:02.546Z,31.70
2017-10-27T16:16:31.306Z,31.60
2017-10-27T16:18:59.454Z,31.60
2017-10-27T16:21:27.491Z,31.60
2017-10-27T16:23:55.510Z,31.60
2017-10-27T16:26:23.651Z,31.60
2017-10-27T16:28:52.863Z,31.50
2017-10-27T16:31:22.394Z,31.50
2017-10-27T16:33:50.983Z,31.50
2017-10-27T16:36:18.998Z,31.40
2017-10-27T16:38:47.019Z,31.40
2017-10-27T16:41:15.154Z,31.40
2017-10-27T16:43:43.623Z,31.40
2017-10-27T16:46:12.247Z,31.40
2017-10-27T16:48:41.623Z,31.40
2017-10-27T16:51:10.146Z,31.40
2017-10-27T16:53:38.344Z,31.40
2017-10-27T16:56:06.494Z,31.40
2017-10-27T16:58:34.816Z,31.30
2017-10-27T17:01:03.383Z,31.30
2017-10-27T17:03:32.246Z,31.30
2017-10-27T17:06:01.047Z,31.30
2017-10-27T17:08:29.095Z,31.30
2017-10-27T17:10:57.935Z,31.30
2017-10-27T17:13:25.994Z,31.20
2017-10-27T17:15:54.562Z,31.20
2017-10-27T17:18:23.454Z,31.30
2017-10-27T17:20:51.447Z,31.20
2017-10-27T17:23:19.439Z,31.20
2017-10-27T17:25:47.587Z,31.20
2017-10-27T17:28:15.714Z,31.20
2017-10-27T17:30:45.105Z,31.20
2017-10-27T17:33:13.278Z,31.20
2017-10-27T17:35:42.011Z,31.20
2017-10-27T17:38:10.755Z,31.10
2017-10-27T17:40:38.893Z,31.10
2017-10-27T17:43:06.932Z,31.10
2017-10-27T17:45:36.554Z,31.10
2017-10-27T17:48:04.784Z,31.00
2017-10-27T17:50:33.406Z,31.00
2017-10-27T17:53:02.664Z,31.00
2017-10-27T17:55:31.003Z,31.00
2017-10-27T17:57:59.000Z,31.00
2017-10-27T18:00:27.435Z,31.00
2017-10-27T18:02:56.950Z,30.90
2017-10-27T18:05:25.438Z,31.00
2017-10-27T18:07:54.134Z,31.00
2017-10-27T18:10:22.266Z,31.00
2017-10-27T18:12:50.302Z,31.00
2017-10-27T18:15:18.904Z,30.90
2017-10-27T18:17:47.648Z,30.90
2017-10-27T18:20:15.694Z,30.90
2017-10-27T18:22:44.906Z,30.90
2017-10-27T18:25:13.015Z,30.80
2017-10-27T18:27:41.072Z,30.80
2017-10-27T18:30:09.111Z,30.90
2017-10-27T18:32:38.722Z,30.80
2017-10-27T18:35:07.564Z,30.80
2017-10-27T18:37:36.183Z,30.80
2017-10-27T18:40:04.443Z,30.80
2017-10-27T18:42:32.476Z,30.90
2017-10-27T18:45:01.108Z,30.90
2017-10-27T18:47:29.259Z,30.80
2017-10-27T18:49:59.607Z,30.80
2017-10-27T18:52:28.458Z,30.70
2017-10-27T18:54:56.983Z,30.70
2017-10-27T18:57:25.191Z,30.80
2017-10-27T18:59:54.023Z,30.80
2017-10-27T19:02:22.813Z,30.80
2017-10-27T19:04:51.346Z,30.80
2017-10-27T19:07:20.175Z,30.80
2017-10-27T19:09:49.091Z,30.80
2017-10-27T19:12:17.137Z,30.80
2017-10-27T19:14:45.214Z,30.80
2017-10-27T19:17:13.914Z,30.70
2017-10-27T19:19:42.463Z,30.70
2017-10-27T19:22:11.096Z,30.70
2017-10-27T19:24:40.091Z,30.70
2017-10-27T19:27:11.483Z,30.70
2017-10-27T19:29:39.754Z,30.70
2017-10-27T19:32:09.074Z,30.70
2017-10-27T19:34:37.708Z,30.70
2017-10-27T19:37:06.574Z,30.60
2017-10-27T19:39:35.030Z,30.60
2017-10-27T19:42:03.839Z,30.60
2017-10-27T19:44:31.866Z,30.60
2017-10-27T19:47:00.411Z,30.50
2017-10-27T19:49:28.486Z,30.60
2017-10-27T19:51:57.070Z,30.50
2017-10-27T19:54:25.095Z,30.60
2017-10-27T19:56:53.828Z,30.50
2017-10-27T19:59:21.998Z,30.50
2017-10-27T20:01:50.676Z,30.50
2017-10-27T20:04:19.234Z,30.50
2017-10-27T20:06:48.577Z,30.40
2017-10-27T20:09:16.753Z,30.40
2017-10-27T20:11:45.353Z,30.40
2017-10-27T20:14:13.394Z,30.40
2017-10-27T20:16:41.407Z,30.40
2017-10-27T20:19:09.995Z,30.30
2017-10-27T20:21:38.630Z,30.30
2017-10-27T20:24:07.626Z,30.30
2017-10-27T20:26:36.407Z,30.30
2017-10-27T20:29:04.471Z,30.30
2017-10-27T20:31:33.203Z,30.30
2017-10-27T20:34:01.973Z,30.30
2017-10-27T20:36:30.674Z,30.20
2017-10-27T20:38:59.220Z,30.30
2017-10-27T20:41:29.546Z,30.20
2017-10-27T20:43:58.812Z,30.20
2017-10-27T20:46:26.819Z,30.20
2017-10-27T20:48:56.194Z,30.20
2017-10-27T20:51:24.850Z,30.20
2017-10-27T20:53:53.356Z,30.20
2017-10-27T20:56:22.102Z,30.10
2017-10-27T20:58:50.111Z,30.10
2017-10-27T21:01:18.374Z,30.00
2017-10-27T21:03:46.538Z,30.00
2017-10-27T21:06:14.578Z,29.90
2017-10-27T21:08:44.028Z,29.80
2017-10-27T21:11:12.609Z,29.80
2017-10-27T21:13:40.662Z,29.80
2017-10-27T21:16:08.659Z,29.70
2017-10-27T21:18:37.318Z,29.60
2017-10-27T21:21:06.016Z,29.60
2017-10-27T21:23:34.505Z,29.60
2017-10-27T21:26:03.139Z,29.50
2017-10-27T21:28:31.879Z,29.40
2017-10-27T21:30:59.883Z,29.30
2017-10-27T21:33:28.510Z,29.40
2017-10-27T21:35:57.311Z,29.40
2017-10-27T21:38:25.359Z,29.40
2017-10-27T21:40:54.668Z,29.30
2017-10-27T21:43:23.162Z,29.30
2017-10-27T21:45:51.180Z,29.30
2017-10-27T21:48:19.213Z,29.30
2017-10-27T21:50:47.739Z,29.30
2017-10-27T21:53:16.059Z,29.40
2017-10-27T21:55:44.778Z,29.30
2017-10-27T21:58:13.362Z,29.30
2017-10-27T22:00:41.422Z,29.20
2017-10-27T22:03:09.575Z,29.20
2017-10-27T22:05:38.266Z,29.20
2017-10-27T22:08:07.568Z,29.00
2017-10-27T22:10:36.052Z,29.00
2017-10-27T22:13:04.960Z,28.90
2017-10-27T22:15:33.622Z,28.90
2017-10-27T22:18:02.420Z,28.90
2017-10-27T22:20:30.487Z,28.90
2017-10-27T22:22:59.166Z,28.90
2017-10-27T22:25:28.469Z,29.00
2017-10-27T22:27:57.801Z,29.00
2017-10-27T22:30:26.255Z,28.90
2017-10-27T22:32:55.034Z,28.90
2017-10-27T22:35:23.831Z,29.00
2017-10-27T22:37:53.135Z,29.00
2017-10-27T22:40:22.391Z,28.90
2017-10-27T22:42:50.988Z,28.90
2017-10-27T22:45:19.734Z,28.80
2017-10-27T22:47:47.722Z,28.80
2017-10-27T22:50:15.723Z,28.80
2017-10-27T22:52:44.234Z,28.80
2017-10-27T22:55:13.543Z,28.70
2017-10-27T22:57:43.089Z,28.60
2017-10-27T23:00:11.146Z,28.50
2017-10-27T23:02:39.139Z,28.50
2017-10-27T23:05:07.282Z,28.50
2017-10-27T23:07:41.739Z,28.50
2017-10-27T23:10:11.220Z,28.40
2017-10-27T23:12:39.775Z,28.50
2017-10-27T23:15:09.114Z,28.30
2017-10-27T23:17:37.158Z,28.30
2017-10-27T23:20:05.896Z,28.20
2017-10-27T23:22:34.784Z,28.20
2017-10-27T23:25:03.646Z,28.10
2017-10-27T23:27:32.103Z,28.20
2017-10-27T23:30:02.369Z,28.10
2017-10-27T23:32:30.379Z,28.10
2017-10-27T23:34:58.421Z,28.10
2017-10-27T23:37:26.797Z,28.10
2017-10-27T23:39:54.841Z,28.10
2017-10-27T23:42:22.907Z,28.10
2017-10-27T23:44:51.467Z,28.00
2017-10-27T23:47:20.851Z,27.90
2017-10-27T23:49:49.533Z,27.80
2017-10-27T23:52:17.586Z,27.80
2017-10-27T23:54:46.195Z,27.80
2017-10-27T23:57:15.578Z,27.80
2017-10-27T23:59:44.238Z,27.70
